createdAt,value
2018-12-12T00:01:02.776Z,41.30
2018-12-12T00:03:34.362Z,43.40
2018-12-12T00:06:05.644Z,39.40
2018-12-12T00:08:35.329Z,42.50
2018-12-12T00:11:05.280Z,39.80
2018-12-12T00:13:34.922Z,37.40
2018-12-12T00:16:05.105Z,35.00
2018-12-12T00:18:35.043Z,38.60
2018-12-12T00:21:04.901Z,39.80
2018-12-12T00:23:34.524Z,39.60
2018-12-12T00:26:05.198Z,36.80
2018-12-12T00:28:34.755Z,39.80
2018-12-12T00:31:04.383Z,38.60
2018-12-12T00:33:33.939Z,38.40
2018-12-12T00:36:04.390Z,39.30
2018-12-12T00:38:33.925Z,38.60
2018-12-12T00:41:03.502Z,38.10
2018-12-12T00:43:33.094Z,38.60
2018-12-12T00:46:02.685Z,39.40
2018-12-12T00:48:32.700Z,40.70
2018-12-12T00:51:03.206Z,39.90
2018-12-12T00:53:32.823Z,38.60
2018-12-12T00:56:02.137Z,41.50
2018-12-12T00:58:32.060Z,43.40
2018-12-12T01:01:01.340Z,44.40
2018-12-12T01:03:30.654Z,42.70
2018-12-12T01:06:00.221Z,42.50
2018-12-12T01:08:29.864Z,39.80
2018-12-12T01:11:04.711Z,40.10
2018-12-12T01:13:34.655Z,42.20
2018-12-12T01:16:05.040Z,44.00
2018-12-12T01:18:35.102Z,43.40
2018-12-12T01:21:04.640Z,41.50
2018-12-12T01:23:34.209Z,43.40
2018-12-12T01:26:03.800Z,42.70
2018-12-12T01:28:33.452Z,43.80
2018-12-12T01:31:02.772Z,41.80
2018-12-12T01:33:32.935Z,41.50
2018-12-12T01:36:02.611Z,42.70
2018-12-12T01:38:32.162Z,42.40
2018-12-12T01:41:02.283Z,42.50
2018-12-12T01:43:33.032Z,39.40
2018-12-12T01:46:02.837Z,43.50
2018-12-12T01:48:32.396Z,39.70
2018-12-12T01:51:01.979Z,42.60
2018-12-12T01:53:31.527Z,39.10
2018-12-12T01:56:01.257Z,42.70
2018-12-12T01:58:30.900Z,40.00
2018-12-12T02:01:00.468Z,39.20
2018-12-12T02:03:29.990Z,36.70
2018-12-12T02:05:59.618Z,38.30
2018-12-12T02:08:29.154Z,39.00
2018-12-12T02:10:59.431Z,40.10
2018-12-12T02:13:36.944Z,40.10
2018-12-12T02:16:09.177Z,37.40
2018-12-12T02:18:41.223Z,36.40
2018-12-12T02:21:10.778Z,38.60
2018-12-12T02:23:40.465Z,40.30
2018-12-12T02:26:10.033Z,41.00
2018-12-12T02:28:39.581Z,38.70
2018-12-12T02:31:09.141Z,40.30
2018-12-12T02:33:38.672Z,40.10
2018-12-12T02:36:08.816Z,38.20
2018-12-12T02:38:38.438Z,39.00
2018-12-12T02:41:07.982Z,41.00
2018-12-12T02:43:37.572Z,40.80
2018-12-12T02:46:13.517Z,36.20
2018-12-12T02:48:43.172Z,36.90
2018-12-12T02:51:12.715Z,39.60
2018-12-12T02:53:42.294Z,37.40
2018-12-12T02:56:11.842Z,36.80
2018-12-12T02:58:41.465Z,39.30
2018-12-12T03:01:11.013Z,38.60
2018-12-12T03:03:40.549Z,34.20
2018-12-12T03:06:10.164Z,33.40
2018-12-12T03:08:39.722Z,31.70
2018-12-12T03:11:09.298Z,31.20
2018-12-12T03:13:39.019Z,36.00
2018-12-12T03:16:08.608Z,33.70
2018-12-12T03:18:38.851Z,33.70
2018-12-12T03:21:08.393Z,38.50
2018-12-12T03:23:37.997Z,38.60
2018-12-12T03:26:07.705Z,40.20
2018-12-12T03:28:37.498Z,40.20
2018-12-12T03:31:07.061Z,41.00
2018-12-12T03:33:37.565Z,37.80
2018-12-12T03:36:07.415Z,38.50
2018-12-12T03:38:37.244Z,39.30
2018-12-12T03:41:06.834Z,38.50
2018-12-12T03:43:36.363Z,38.50
2018-12-12T03:46:07.296Z,35.40
2018-12-12T03:48:37.429Z,38.10
2018-12-12T03:51:07.416Z,41.80
2018-12-12T03:53:36.981Z,39.90
2018-12-12T03:56:06.548Z,38.50
2018-12-12T03:58:36.551Z,42.10
2018-12-12T04:01:06.426Z,40.20
2018-12-12T04:03:36.016Z,43.40
2018-12-12T04:06:05.584Z,42.90
2018-12-12T04:08:35.173Z,46.70
2018-12-12T04:11:05.191Z,47.60
2018-12-12T04:13:34.824Z,49.70
2018-12-12T04:16:04.344Z,50.20
2018-12-12T04:18:33.970Z,52.80
2018-12-12T04:21:03.582Z,52.00
2018-12-12T04:23:33.226Z,48.10
2018-12-12T04:26:02.837Z,49.20
2018-12-12T04:28:32.391Z,52.00
2018-12-12T04:31:01.962Z,55.50
2018-12-12T04:33:31.551Z,60.20
2018-12-12T04:36:01.105Z,58.60
2018-12-12T04:38:31.120Z,63.50
2018-12-12T04:41:00.681Z,61.90
2018-12-12T04:43:30.218Z,64.40
2018-12-12T04:45:59.799Z,67.40
2018-12-12T04:48:29.477Z,69.20
2018-12-12T04:50:59.051Z,66.60
2018-12-12T04:53:28.628Z,67.40
2018-12-12T04:55:59.359Z,64.40
2018-12-12T04:58:28.905Z,70.60
2018-12-12T05:00:58.478Z,71.50
2018-12-12T05:03:28.178Z,76.10
2018-12-12T05:05:57.760Z,77.60
2018-12-12T05:08:27.327Z,79.30
2018-12-12T05:10:56.911Z,81.60
2018-12-12T05:13:26.848Z,82.70
2018-12-12T05:15:56.446Z,84.00
2018-12-12T05:18:26.053Z,87.50
2018-12-12T05:20:55.659Z,88.70
2018-12-12T05:23:25.574Z,89.70
2018-12-12T05:25:55.157Z,91.10
2018-12-12T05:28:25.765Z,92.30
2018-12-12T05:30:55.340Z,92.60
2018-12-12T05:33:26.186Z,93.30
2018-12-12T05:35:55.948Z,94.40
2018-12-12T05:38:25.553Z,94.80
2018-12-12T05:40:58.314Z,95.60
2018-12-12T05:43:28.011Z,96.60
2018-12-12T05:45:57.615Z,97.60
2018-12-12T05:48:27.181Z,97.70
2018-12-12T05:50:56.842Z,98.00
2018-12-12T05:53:27.415Z,98.80
2018-12-12T05:56:02.665Z,99.30
2018-12-12T05:58:32.153Z,99.50
2018-12-12T06:01:02.382Z,99.50
2018-12-12T06:03:32.045Z,99.60
2018-12-12T06:06:01.618Z,99.70
2018-12-12T06:08:31.223Z,99.90
2018-12-12T06:11:00.828Z,99.90
2018-12-12T06:13:30.443Z,99.90
2018-12-12T06:16:00.188Z,99.90
2018-12-12T06:18:29.806Z,99.80
2018-12-12T06:20:59.827Z,99.30
2018-12-12T06:23:29.746Z,99.90
2018-12-12T06:25:59.330Z,98.50
2018-12-12T06:28:29.053Z,99.10
2018-12-12T06:31:00.387Z,98.70
2018-12-12T06:33:30.009Z,97.70
2018-12-12T06:35:59.602Z,98.30
2018-12-12T06:38:29.267Z,98.40
2018-12-12T06:40:58.845Z,98.20
2018-12-12T06:43:28.492Z,98.40
2018-12-12T06:45:58.084Z,98.10
2018-12-12T06:48:27.695Z,97.90
2018-12-12T06:50:57.554Z,98.00
2018-12-12T06:53:27.876Z,98.20
2018-12-12T06:55:57.890Z,98.50
2018-12-12T06:58:27.453Z,98.30
2018-12-12T07:00:57.454Z,98.50
2018-12-12T07:03:27.164Z,98.60
2018-12-12T07:05:56.730Z,98.50
2018-12-12T07:08:26.345Z,98.40
2018-12-12T07:10:55.907Z,98.30
2018-12-12T07:13:25.716Z,98.30
2018-12-12T07:15:55.274Z,98.30
2018-12-12T07:18:25.070Z,98.30
2018-12-12T07:20:54.903Z,97.80
2018-12-12T07:23:24.592Z,97.70
2018-12-12T07:25:54.166Z,97.30
2018-12-12T07:28:24.209Z,97.10
2018-12-12T07:30:54.012Z,96.90
2018-12-12T07:33:23.654Z,96.60
2018-12-12T07:35:59.328Z,96.50
2018-12-12T07:38:25.287Z,96.40
2018-12-12T07:40:54.911Z,95.80
2018-12-12T07:43:26.303Z,95.80
2018-12-12T07:46:18.985Z,95.90
2018-12-12T07:48:50.236Z,96.20
2018-12-12T07:51:37.368Z,95.90
2018-12-12T07:54:17.702Z,95.70
2018-12-12T07:56:47.764Z,95.80
2018-12-12T07:59:18.325Z,95.30
2018-12-12T08:01:48.504Z,95.40
2018-12-12T08:04:18.206Z,95.10
2018-12-12T08:06:48.109Z,95.30
2018-12-12T08:09:17.759Z,95.30
2018-12-12T08:11:47.612Z,94.60
2018-12-12T08:14:17.190Z,94.60
2018-12-12T08:16:46.749Z,95.00
2018-12-12T08:19:16.303Z,94.90
2018-12-12T08:21:51.374Z,94.70
2018-12-12T08:24:21.090Z,95.20
2018-12-12T08:26:50.918Z,94.70
2018-12-12T08:29:21.146Z,94.60
2018-12-12T08:31:50.950Z,94.40
2018-12-12T08:34:21.457Z,94.60
2018-12-12T08:36:51.510Z,94.40
2018-12-12T08:39:22.040Z,94.60
2018-12-12T08:41:51.917Z,94.60
2018-12-12T08:44:25.929Z,94.00
2018-12-12T08:46:56.480Z,94.00
2018-12-12T08:49:25.775Z,94.00
2018-12-12T08:51:55.498Z,94.00
2018-12-12T08:54:35.159Z,93.20
2018-12-12T08:57:05.622Z,93.80
2018-12-12T08:59:35.237Z,93.40
2018-12-12T09:02:05.527Z,93.20
2018-12-12T09:04:35.414Z,93.20
2018-12-12T09:07:05.226Z,93.40
2018-12-12T09:09:35.146Z,92.70
2018-12-12T09:12:05.414Z,93.20
2018-12-12T09:14:34.781Z,92.80
2018-12-12T09:17:09.677Z,92.10
2018-12-12T09:19:38.492Z,91.60
2018-12-12T09:22:08.066Z,90.10
2018-12-12T09:24:37.613Z,90.10
2018-12-12T09:27:07.380Z,90.10
2018-12-12T09:29:36.959Z,89.70
2018-12-12T09:32:08.388Z,90.10
2018-12-12T09:34:39.407Z,88.50
2018-12-12T09:37:09.046Z,88.90
2018-12-12T09:39:38.640Z,86.80
2018-12-12T09:42:08.422Z,88.00
2018-12-12T09:44:38.530Z,88.60
2018-12-12T09:47:08.260Z,88.80
2018-12-12T09:49:38.166Z,90.10
2018-12-12T09:52:09.211Z,90.80
2018-12-12T09:54:40.781Z,90.10
2018-12-12T09:57:10.096Z,90.10
2018-12-12T09:59:39.658Z,90.10
2018-12-12T10:02:09.326Z,90.10
2018-12-12T10:04:39.312Z,89.70
2018-12-12T10:07:08.930Z,87.80
2018-12-12T10:09:38.506Z,86.90
2018-12-12T10:12:08.166Z,88.30
2018-12-12T10:14:37.797Z,90.10
2018-12-12T10:17:08.056Z,90.70
2018-12-12T10:19:37.721Z,91.70
2018-12-12T10:22:07.109Z,92.50
2018-12-12T10:24:36.721Z,92.90
2018-12-12T10:27:06.356Z,93.60
2018-12-12T10:29:35.676Z,93.90
2018-12-12T10:32:05.466Z,94.10
2018-12-12T10:34:35.149Z,94.10
2018-12-12T10:37:04.728Z,94.10
2018-12-12T10:39:34.378Z,93.60
2018-12-12T10:42:04.058Z,92.40
2018-12-12T10:44:33.903Z,92.10
2018-12-12T10:47:04.714Z,92.00
2018-12-12T10:49:34.637Z,90.50
2018-12-12T10:52:04.003Z,90.80
2018-12-12T10:54:34.430Z,90.10
2018-12-12T10:57:04.721Z,90.10
2018-12-12T10:59:34.340Z,90.10
2018-12-12T11:02:09.676Z,88.10
2018-12-12T11:04:39.368Z,88.40
2018-12-12T11:07:09.358Z,87.20
2018-12-12T11:09:38.957Z,87.00
2018-12-12T11:12:08.663Z,88.00
2018-12-12T11:14:38.261Z,87.50
2018-12-12T11:17:07.584Z,88.30
2018-12-12T11:19:36.860Z,88.00
2018-12-12T11:22:06.134Z,88.90
2018-12-12T11:24:35.527Z,89.10
2018-12-12T11:27:05.012Z,89.20
2018-12-12T11:29:34.304Z,85.80
2018-12-12T11:32:03.954Z,85.50
2018-12-12T11:34:33.409Z,84.20
2018-12-12T11:37:02.739Z,85.00
2018-12-12T11:39:32.030Z,85.90
2018-12-12T11:42:01.336Z,85.50
2018-12-12T11:44:30.622Z,86.90
2018-12-12T11:47:00.181Z,84.30
2018-12-12T11:49:29.818Z,84.00
2018-12-12T11:52:00.226Z,84.20
2018-12-12T11:54:30.798Z,86.70
2018-12-12T11:57:01.052Z,86.70
2018-12-12T11:59:30.963Z,88.30
2018-12-12T12:02:00.522Z,89.60
2018-12-12T12:04:30.092Z,90.20
2018-12-12T12:06:59.667Z,89.60
2018-12-12T12:09:28.967Z,89.10
2018-12-12T12:11:58.675Z,89.10
2018-12-12T12:14:30.011Z,87.80
2018-12-12T12:16:59.425Z,89.40
2018-12-12T12:19:29.025Z,87.60
2018-12-12T12:21:58.929Z,88.80
2018-12-12T12:24:28.255Z,87.70
2018-12-12T12:26:57.858Z,88.80
2018-12-12T12:29:28.055Z,89.00
2018-12-12T12:31:57.676Z,88.80
2018-12-12T12:34:26.962Z,87.30
2018-12-12T12:36:56.659Z,86.20
2018-12-12T12:39:26.639Z,87.40
2018-12-12T12:41:56.018Z,87.70
2018-12-12T12:44:25.418Z,87.60
2018-12-12T12:46:55.110Z,85.90
2018-12-12T12:49:24.711Z,87.90
2018-12-12T12:51:55.054Z,89.40
2018-12-12T12:54:24.559Z,89.00
2018-12-12T12:56:54.153Z,88.20
2018-12-12T12:59:23.830Z,86.80
2018-12-12T13:01:53.361Z,90.20
2018-12-12T13:04:23.005Z,89.40
2018-12-12T13:06:52.501Z,89.20
2018-12-12T13:09:21.769Z,90.20
2018-12-12T13:11:51.189Z,90.20
2018-12-12T13:14:20.959Z,91.20
2018-12-12T13:16:50.569Z,92.80
2018-12-12T13:19:19.886Z,93.60
2018-12-12T13:21:50.181Z,94.10
2018-12-12T13:24:19.498Z,94.20
2018-12-12T13:26:53.413Z,94.90
2018-12-12T13:29:20.274Z,95.60
2018-12-12T13:31:51.071Z,95.20
2018-12-12T13:34:20.705Z,95.60
2018-12-12T13:36:57.030Z,96.00
2018-12-12T13:39:26.461Z,95.80
2018-12-12T13:41:58.029Z,95.90
2018-12-12T13:44:28.467Z,95.40
2018-12-12T13:46:58.387Z,95.60
2018-12-12T13:49:27.991Z,95.30
2018-12-12T13:51:57.483Z,94.70
2018-12-12T13:54:27.187Z,94.80
2018-12-12T13:56:56.537Z,94.30
2018-12-12T13:59:25.905Z,94.30
2018-12-12T14:01:56.140Z,93.70
2018-12-12T14:04:28.024Z,93.60
2018-12-12T14:06:57.359Z,93.00
2018-12-12T14:09:26.691Z,92.20
2018-12-12T14:11:56.022Z,92.60
2018-12-12T14:14:25.387Z,92.40
2018-12-12T14:16:54.714Z,92.40
2018-12-12T14:19:26.478Z,92.00
2018-12-12T14:22:02.061Z,92.20
2018-12-12T14:24:31.349Z,92.20
2018-12-12T14:27:00.840Z,92.00
2018-12-12T14:29:30.169Z,91.00
2018-12-12T14:31:59.792Z,91.00
2018-12-12T14:34:29.426Z,91.00
2018-12-12T14:36:59.012Z,90.90
2018-12-12T14:39:28.382Z,91.40
2018-12-12T14:41:57.678Z,91.20
2018-12-12T14:44:27.439Z,91.70
2018-12-12T14:46:57.349Z,92.30
2018-12-12T14:49:26.968Z,92.30
2018-12-12T14:51:56.571Z,92.20
2018-12-12T14:54:26.340Z,92.60
2018-12-12T14:57:01.672Z,92.90
2018-12-12T14:59:31.101Z,92.90
2018-12-12T15:02:02.354Z,91.80
2018-12-12T15:04:35.839Z,91.60
2018-12-12T15:07:03.205Z,91.30
2018-12-12T15:09:32.487Z,92.20
2018-12-12T15:12:01.880Z,92.30
2018-12-12T15:14:32.473Z,93.00
2018-12-12T15:17:01.778Z,93.10
2018-12-12T15:19:32.013Z,93.60
2018-12-12T15:22:01.542Z,93.90
2018-12-12T15:24:30.888Z,94.10
2018-12-12T15:27:00.263Z,94.20
2018-12-12T15:29:29.573Z,94.20
2018-12-12T15:31:59.029Z,94.30
2018-12-12T15:34:28.335Z,94.70
2018-12-12T15:36:58.222Z,95.10
2018-12-12T15:39:27.834Z,95.10
2018-12-12T15:41:57.409Z,95.50
2018-12-12T15:44:28.184Z,95.70
2018-12-12T15:46:58.272Z,95.80
2018-12-12T15:49:27.683Z,95.90
2018-12-12T15:51:57.052Z,96.10
2018-12-12T15:54:26.373Z,96.40
2018-12-12T15:56:55.846Z,96.50
2018-12-12T15:59:25.160Z,96.90
2018-12-12T16:01:54.844Z,97.20
2018-12-12T16:04:24.272Z,97.10
2018-12-12T16:06:53.527Z,97.60
2018-12-12T16:09:23.102Z,97.80
2018-12-12T16:11:52.600Z,97.70
2018-12-12T16:14:21.936Z,98.00
2018-12-12T16:16:51.217Z,98.00
2018-12-12T16:19:20.606Z,98.00
2018-12-12T16:21:50.103Z,98.10
2018-12-12T16:24:20.284Z,98.50
2018-12-12T16:26:49.614Z,98.40
2018-12-12T16:29:19.001Z,98.50
2018-12-12T16:31:48.320Z,98.70
2018-12-12T16:34:17.898Z,98.70
2018-12-12T16:36:47.538Z,98.70
2018-12-12T16:39:16.819Z,98.70
2018-12-12T16:41:46.628Z,98.90
2018-12-12T16:44:16.352Z,99.10
2018-12-12T16:47:06.718Z,99.20
2018-12-12T16:49:36.463Z,99.50
2018-12-12T16:52:06.382Z,99.70
2018-12-12T16:54:35.988Z,99.90
2018-12-12T16:57:06.776Z,99.90
2018-12-12T16:59:36.120Z,99.90
2018-12-12T17:02:05.721Z,99.70
2018-12-12T17:04:35.059Z,95.90
2018-12-12T17:07:05.312Z,93.60
2018-12-12T17:09:34.782Z,94.30
2018-12-12T17:12:04.749Z,94.20
2018-12-12T17:14:34.057Z,95.90
2018-12-12T17:17:04.252Z,94.70
2018-12-12T17:19:34.136Z,95.20
2018-12-12T17:22:03.449Z,96.20
2018-12-12T17:24:33.102Z,96.00
2018-12-12T17:27:02.666Z,95.10
2018-12-12T17:29:32.566Z,94.10
2018-12-12T17:32:02.483Z,93.00
2018-12-12T17:34:32.070Z,94.30
2018-12-12T17:37:01.364Z,95.00
2018-12-12T17:39:30.999Z,95.70
2018-12-12T17:42:00.557Z,95.60
2018-12-12T17:44:29.853Z,96.00
2018-12-12T17:46:59.131Z,96.50
2018-12-12T17:49:28.472Z,96.40
2018-12-12T17:51:58.174Z,96.50
2018-12-12T17:54:28.810Z,96.70
2018-12-12T17:56:58.620Z,97.00
2018-12-12T17:59:28.156Z,97.10
2018-12-12T18:01:57.596Z,97.00
2018-12-12T18:04:47.331Z,97.10
2018-12-12T18:07:17.273Z,97.40
2018-12-12T18:09:47.173Z,96.80
2018-12-12T18:12:16.766Z,96.90
2018-12-12T18:14:47.304Z,96.80
2018-12-12T18:17:18.611Z,96.60
2018-12-12T18:19:47.952Z,96.80
2018-12-12T18:22:17.624Z,96.50
2018-12-12T18:24:49.157Z,96.00
2018-12-12T18:27:18.972Z,96.30
2018-12-12T18:29:48.286Z,96.70
2018-12-12T18:32:19.427Z,96.20
2018-12-12T18:35:07.216Z,96.60
2018-12-12T18:37:36.495Z,96.20
2018-12-12T18:40:06.576Z,95.40
2018-12-12T18:42:38.568Z,95.50
2018-12-12T18:45:09.152Z,95.70
2018-12-12T18:47:39.750Z,95.20
2018-12-12T18:50:10.235Z,94.00
2018-12-12T18:52:41.323Z,94.00
2018-12-12T18:55:11.562Z,93.90
2018-12-12T18:57:43.380Z,94.00
2018-12-12T19:00:13.007Z,94.00
2018-12-12T19:02:42.562Z,93.90
2018-12-12T19:05:12.345Z,93.90
2018-12-12T19:07:41.990Z,93.60
2018-12-12T19:10:11.795Z,93.90
2018-12-12T19:12:41.262Z,93.40
2018-12-12T19:15:11.031Z,93.30
2018-12-12T19:17:43.635Z,91.30
2018-12-12T19:20:12.946Z,92.10
2018-12-12T19:22:42.550Z,93.60
2018-12-12T19:25:12.147Z,93.70
2018-12-12T19:27:42.422Z,93.80
2018-12-12T19:30:12.203Z,94.00
2018-12-12T19:32:41.809Z,94.00
2018-12-12T19:35:11.819Z,94.10
2018-12-12T19:37:41.483Z,93.80
2018-12-12T19:40:12.348Z,94.60
2018-12-12T19:42:42.338Z,93.80
2018-12-12T19:45:11.785Z,93.90
2018-12-12T19:47:41.729Z,94.10
2018-12-12T19:50:11.840Z,94.20
2018-12-12T19:52:43.755Z,94.00
2018-12-12T19:55:18.560Z,94.30
2018-12-12T19:57:48.289Z,94.70
2018-12-12T20:00:18.188Z,93.70
2018-12-12T20:02:48.097Z,94.20
2018-12-12T20:05:18.097Z,94.30
2018-12-12T20:07:47.826Z,94.50
2018-12-12T20:10:18.507Z,94.70
2018-12-12T20:12:48.602Z,94.50
2018-12-12T20:15:52.915Z,94.70
2018-12-12T20:18:22.614Z,94.90
2018-12-12T20:20:53.441Z,94.80
2018-12-12T20:23:23.646Z,94.80
2018-12-12T20:25:53.314Z,94.80
2018-12-12T20:28:23.215Z,94.70
2018-12-12T20:30:53.126Z,94.00
2018-12-12T20:33:23.270Z,92.20
2018-12-12T20:35:53.275Z,92.90
2018-12-12T20:38:23.085Z,93.40
2018-12-12T20:40:52.686Z,94.10
2018-12-12T20:43:22.516Z,94.50
2018-12-12T20:45:52.190Z,94.90
2018-12-12T20:48:21.856Z,95.20
2018-12-12T20:50:51.434Z,95.50
2018-12-12T20:53:21.055Z,95.50
2018-12-12T20:55:50.694Z,95.50
2018-12-12T20:58:20.268Z,95.40
2018-12-12T21:00:49.621Z,95.70
2018-12-12T21:03:20.382Z,95.50
2018-12-12T21:05:54.563Z,95.60
2018-12-12T21:08:23.137Z,95.60
2018-12-12T21:10:52.738Z,95.40
2018-12-12T21:13:22.785Z,95.50
2018-12-12T21:15:52.472Z,95.40
2018-12-12T21:18:22.106Z,95.20
2018-12-12T21:20:51.955Z,95.40
2018-12-12T21:23:21.875Z,94.90
2018-12-12T21:25:52.033Z,94.50
2018-12-12T21:28:22.630Z,94.60
2018-12-12T21:30:52.293Z,94.50
2018-12-12T21:33:21.996Z,94.50
2018-12-12T21:35:52.007Z,94.40
2018-12-12T21:38:21.929Z,94.70
2018-12-12T21:40:51.526Z,94.30
2018-12-12T21:43:21.761Z,94.30
2018-12-12T21:45:51.048Z,94.30
2018-12-12T21:48:20.952Z,94.60
2018-12-12T21:50:50.548Z,95.10
2018-12-12T21:53:20.758Z,94.90
2018-12-12T21:55:50.462Z,94.60
2018-12-12T21:58:20.040Z,94.70
2018-12-12T22:00:50.190Z,94.70
2018-12-12T22:03:19.833Z,94.60
2018-12-12T22:05:50.088Z,94.80
2018-12-12T22:08:19.908Z,94.80
2018-12-12T22:10:49.542Z,94.90
2018-12-12T22:13:19.126Z,95.10
2018-12-12T22:15:48.700Z,95.40
2018-12-12T22:18:18.965Z,95.50
2018-12-12T22:20:48.891Z,95.70
2018-12-12T22:23:18.457Z,95.90
2018-12-12T22:25:48.079Z,96.10
2018-12-12T22:28:18.032Z,95.90
2018-12-12T22:30:48.546Z,96.10
2018-12-12T22:33:18.130Z,96.40
2018-12-12T22:35:47.801Z,96.80
2018-12-12T22:38:18.020Z,96.70
2018-12-12T22:40:47.659Z,96.70
2018-12-12T22:43:17.519Z,96.80
2018-12-12T22:45:47.477Z,96.90
2018-12-12T22:48:20.510Z,96.90
2018-12-12T22:50:50.853Z,97.10
2018-12-12T22:53:20.457Z,97.40
2018-12-12T22:55:50.262Z,97.10
2018-12-12T22:58:20.350Z,97.30
2018-12-12T23:00:55.853Z,96.80
2018-12-12T23:03:26.386Z,96.90
2018-12-12T23:05:56.251Z,96.70
2018-12-12T23:08:27.129Z,96.90
2018-12-12T23:10:56.948Z,97.20
2018-12-12T23:13:26.602Z,96.70
2018-12-12T23:15:56.662Z,98.40
2018-12-12T23:18:26.243Z,95.90
2018-12-12T23:20:55.524Z,97.50
2018-12-12T23:23:26.114Z,95.60
2018-12-12T23:25:55.522Z,94.60
2018-12-12T23:28:25.137Z,95.10
2018-12-12T23:30:54.444Z,93.90
2018-12-12T23:33:24.578Z,93.10
2018-12-12T23:35:54.275Z,93.60
2018-12-12T23:38:23.579Z,92.60
2018-12-12T23:40:53.191Z,93.20
2018-12-12T23:43:22.693Z,92.10
2018-12-12T23:45:52.739Z,91.80
2018-12-12T23:48:22.079Z,90.00
2018-12-12T23:50:51.342Z,91.10
2018-12-12T23:53:20.707Z,88.10
2018-12-12T23:55:50.066Z,84.80
2018-12-12T23:58:19.474Z,85.90
